メインページ
METAR-TAF:

METAR-TAF

空港 :

チェンナイ, インド

チェンナイ国際空港

緯度: 13-00N, 経度: 080-11E, 海抜: 10m

現時点の気象観測

当レポートは18分前の01:00(UTC)に作成
南/南西の風 4kt
気温 29°C
湿度 58%
気圧 1005 hPa
視程: 6000m
高度2000ftの雲はほとんどない

METAR: VOMM 230100Z 20004KT 6000 FEW020 29/20 Q1005 NOSIG

時間: 06:48 (01:18 UTC)

予報

当レポートは2時間18分前の23:00(UTC)に作成
予報は23日の 00時(UTC)から 24日の 06時(UTC)まで有効
の風 10kt
視程: 6000m
高度2000ftの雲はほとんどない
23日の 06時(UTC)から 23日の 07時(UTC)まで徐々に
東/南東の風 10kt
23日の 09時(UTC)から 23日の 15時(UTC)まで一時的に
高度2000ftの雲はほとんどない
高度10000ftの雲は散在している
23日の 15時(UTC)から 23日の 16時(UTC)まで徐々に
の風 10kt

TAF: VOMM 222300Z 2300/2406 18010KT 6000 FEW020 BECMG 2306/2307 12010KT TEMPO 2309/2315 FEW020 FEW025TCU/CB SCT100 BECMG 2315/2316 18010KT

4,000以上の空港の気象観測と天気予報(METAR報とTAF報)

利用可能な観測所は地図上に黄色い丸と赤い丸で示す。

丸の上にカーソルを重ねると観測所名を参照できる。

次にクリックすると気象観測と天気予報を参照できる。

マップの切り替え:黒色「×」印の緑ボタンをクリックして拡大、「-」印の緑ボタンをクリックして縮小、緑色の三角印をクリックして隣りの地図に切り替え


METAR-TAF: